sensor_id;sensor_type;location;lat;lon;timestamp;P1;durP1;ratioP1;P2;durP2;ratioP2
47349;SDS011;33088;51.982;5.872;2023-04-03T00:01:42;2.95;;;1.30;;
47349;SDS011;33088;51.982;5.872;2023-04-03T00:04:08;2.67;;;1.38;;
47349;SDS011;33088;51.982;5.872;2023-04-03T00:06:34;3.78;;;2.20;;
47349;SDS011;33088;51.982;5.872;2023-04-03T00:09:00;3.72;;;1.60;;
47349;SDS011;33088;51.982;5.872;2023-04-03T00:11:25;5.05;;;1.50;;
47349;SDS011;33088;51.982;5.872;2023-04-03T00:13:51;3.50;;;1.60;;
47349;SDS011;33088;51.982;5.872;2023-04-03T00:16:17;4.57;;;1.80;;
47349;SDS011;33088;51.982;5.872;2023-04-03T00:18:42;3.17;;;2.17;;
47349;SDS011;33088;51.982;5.872;2023-04-03T00:21:09;3.17;;;1.40;;
47349;SDS011;33088;51.982;5.872;2023-04-03T00:23:36;3.97;;;1.63;;
47349;SDS011;33088;51.982;5.872;2023-04-03T00:26:02;4.70;;;1.70;;
47349;SDS011;33088;51.982;5.872;2023-04-03T00:28:28;5.35;;;2.10;;
47349;SDS011;33088;51.982;5.872;2023-04-03T00:30:54;3.63;;;1.42;;
47349;SDS011;33088;51.982;5.872;2023-04-03T00:33:19;6.55;;;1.50;;
47349;SDS011;33088;51.982;5.872;2023-04-03T00:35:49;3.55;;;1.40;;
47349;SDS011;33088;51.982;5.872;2023-04-03T00:38:16;3.50;;;1.55;;
47349;SDS011;33088;51.982;5.872;2023-04-03T00:40:43;3.97;;;1.50;;
47349;SDS011;33088;51.982;5.872;2023-04-03T00:43:14;4.60;;;1.85;;
47349;SDS011;33088;51.982;5.872;2023-04-03T00:45:43;3.08;;;1.83;;
47349;SDS011;33088;51.982;5.872;2023-04-03T00:48:13;1.20;;;1.02;;
47349;SDS011;33088;51.982;5.872;2023-04-03T00:50:43;4.70;;;1.73;;
47349;SDS011;33088;51.982;5.872;2023-04-03T00:53:21;5.43;;;2.33;;
47349;SDS011;33088;51.982;5.872;2023-04-03T00:55:50;7.40;;;1.77;;
47349;SDS011;33088;51.982;5.872;2023-04-03T00:58:19;4.75;;;1.50;;
47349;SDS011;33088;51.982;5.872;2023-04-03T01:00:49;8.88;;;2.00;;
47349;SDS011;33088;51.982;5.872;2023-04-03T01:03:21;4.38;;;1.70;;
47349;SDS011;33088;51.982;5.872;2023-04-03T01:05:47;3.25;;;1.70;;
47349;SDS011;33088;51.982;5.872;2023-04-03T01:08:12;6.32;;;2.17;;
47349;SDS011;33088;51.982;5.872;2023-04-03T01:10:38;5.03;;;1.50;;
47349;SDS011;33088;51.982;5.872;2023-04-03T01:13:17;8.73;;;2.67;;
47349;SDS011;33088;51.982;5.872;2023-04-03T01:15:54;2.42;;;1.77;;
47349;SDS011;33088;51.982;5.872;2023-04-03T01:18:21;4.00;;;1.52;;
47349;SDS011;33088;51.982;5.872;2023-04-03T01:23:49;5.10;;;1.55;;
47349;SDS011;33088;51.982;5.872;2023-04-03T01:26:21;4.78;;;1.75;;
47349;SDS011;33088;51.982;5.872;2023-04-03T01:28:47;4.60;;;1.60;;
47349;SDS011;33088;51.982;5.872;2023-04-03T01:33:48;8.07;;;2.00;;
47349;SDS011;33088;51.982;5.872;2023-04-03T01:36:15;3.90;;;1.42;;
47349;SDS011;33088;51.982;5.872;2023-04-03T01:38:52;3.30;;;1.60;;
47349;SDS011;33088;51.982;5.872;2023-04-03T01:41:19;6.07;;;2.47;;
47349;SDS011;33088;51.982;5.872;2023-04-03T01:43:46;5.72;;;1.67;;
47349;SDS011;33088;51.982;5.872;2023-04-03T01:46:13;5.95;;;2.25;;
47349;SDS011;33088;51.982;5.872;2023-04-03T01:48:40;4.22;;;1.70;;
47349;SDS011;33088;51.982;5.872;2023-04-03T01:51:06;3.15;;;1.55;;
47349;SDS011;33088;51.982;5.872;2023-04-03T01:53:32;7.13;;;2.25;;
47349;SDS011;33088;51.982;5.872;2023-04-03T01:55:57;4.82;;;2.20;;
47349;SDS011;33088;51.982;5.872;2023-04-03T01:58:23;6.90;;;1.60;;
47349;SDS011;33088;51.982;5.872;2023-04-03T02:00:51;6.85;;;2.00;;
47349;SDS011;33088;51.982;5.872;2023-04-03T02:03:18;5.18;;;1.30;;
47349;SDS011;33088;51.982;5.872;2023-04-03T02:05:43;3.38;;;1.92;;
47349;SDS011;33088;51.982;5.872;2023-04-03T02:08:09;5.75;;;1.50;;
47349;SDS011;33088;51.982;5.872;2023-04-03T02:10:35;4.55;;;2.30;;
47349;SDS011;33088;51.982;5.872;2023-04-03T02:13:01;6.63;;;1.70;;
47349;SDS011;33088;51.982;5.872;2023-04-03T02:15:27;8.13;;;1.73;;
47349;SDS011;33088;51.982;5.872;2023-04-03T02:17:53;4.78;;;1.58;;
47349;SDS011;33088;51.982;5.872;2023-04-03T02:20:19;6.60;;;1.73;;
47349;SDS011;33088;51.982;5.872;2023-04-03T02:22:45;7.28;;;1.80;;
47349;SDS011;33088;51.982;5.872;2023-04-03T02:25:11;6.75;;;1.85;;
47349;SDS011;33088;51.982;5.872;2023-04-03T02:27:37;5.70;;;1.67;;
47349;SDS011;33088;51.982;5.872;2023-04-03T02:30:03;4.15;;;1.70;;
47349;SDS011;33088;51.982;5.872;2023-04-03T02:32:30;11.77;;;2.13;;
47349;SDS011;33088;51.982;5.872;2023-04-03T02:34:56;4.72;;;1.83;;
47349;SDS011;33088;51.982;5.872;2023-04-03T02:37:22;9.85;;;1.83;;
47349;SDS011;33088;51.982;5.872;2023-04-03T02:39:49;5.43;;;1.73;;
47349;SDS011;33088;51.982;5.872;2023-04-03T02:42:15;6.03;;;1.90;;
47349;SDS011;33088;51.982;5.872;2023-04-03T02:44:44;7.13;;;2.08;;
47349;SDS011;33088;51.982;5.872;2023-04-03T02:47:10;8.93;;;1.83;;
47349;SDS011;33088;51.982;5.872;2023-04-03T02:49:36;7.15;;;1.83;;
47349;SDS011;33088;51.982;5.872;2023-04-03T02:52:01;5.63;;;2.03;;
47349;SDS011;33088;51.982;5.872;2023-04-03T02:54:27;2.53;;;1.85;;
47349;SDS011;33088;51.982;5.872;2023-04-03T02:56:57;4.22;;;1.70;;
47349;SDS011;33088;51.982;5.872;2023-04-03T02:59:23;8.65;;;1.70;;
47349;SDS011;33088;51.982;5.872;2023-04-03T03:01:49;12.35;;;2.30;;
47349;SDS011;33088;51.982;5.872;2023-04-03T03:04:14;4.65;;;1.80;;
47349;SDS011;33088;51.982;5.872;2023-04-03T03:06:40;5.70;;;2.08;;
47349;SDS011;33088;51.982;5.872;2023-04-03T03:09:06;3.90;;;1.80;;
47349;SDS011;33088;51.982;5.872;2023-04-03T03:11:32;5.70;;;1.92;;
47349;SDS011;33088;51.982;5.872;2023-04-03T03:13:58;8.10;;;1.95;;
47349;SDS011;33088;51.982;5.872;2023-04-03T03:16:24;4.72;;;1.83;;
47349;SDS011;33088;51.982;5.872;2023-04-03T03:18:50;4.57;;;1.92;;
47349;SDS011;33088;51.982;5.872;2023-04-03T03:21:16;15.43;;;2.83;;
47349;SDS011;33088;51.982;5.872;2023-04-03T03:23:41;6.35;;;2.10;;
47349;SDS011;33088;51.982;5.872;2023-04-03T03:26:08;4.70;;;1.70;;
47349;SDS011;33088;51.982;5.872;2023-04-03T03:28:35;8.30;;;1.77;;
47349;SDS011;33088;51.982;5.872;2023-04-03T03:31:02;8.13;;;1.98;;
47349;SDS011;33088;51.982;5.872;2023-04-03T03:33:29;3.25;;;1.95;;
47349;SDS011;33088;51.982;5.872;2023-04-03T03:35:55;4.65;;;1.60;;
47349;SDS011;33088;51.982;5.872;2023-04-03T03:38:21;6.07;;;1.85;;
47349;SDS011;33088;51.982;5.872;2023-04-03T03:40:50;7.35;;;2.33;;
47349;SDS011;33088;51.982;5.872;2023-04-03T03:43:18;5.70;;;2.85;;
47349;SDS011;33088;51.982;5.872;2023-04-03T03:45:49;6.57;;;1.80;;
47349;SDS011;33088;51.982;5.872;2023-04-03T03:48:18;2.92;;;1.77;;
47349;SDS011;33088;51.982;5.872;2023-04-03T03:50:45;7.57;;;2.45;;
47349;SDS011;33088;51.982;5.872;2023-04-03T03:53:11;7.18;;;2.38;;
47349;SDS011;33088;51.982;5.872;2023-04-03T03:55:37;6.50;;;2.17;;
47349;SDS011;33088;51.982;5.872;2023-04-03T03:58:03;7.22;;;1.80;;
47349;SDS011;33088;51.982;5.872;2023-04-03T04:00:30;7.45;;;1.95;;
47349;SDS011;33088;51.982;5.872;2023-04-03T04:02:56;7.13;;;2.28;;
47349;SDS011;33088;51.982;5.872;2023-04-03T04:05:23;4.38;;;1.73;;
47349;SDS011;33088;51.982;5.872;2023-04-03T04:07:49;7.57;;;2.30;;
47349;SDS011;33088;51.982;5.872;2023-04-03T04:10:14;8.05;;;2.05;;
47349;SDS011;33088;51.982;5.872;2023-04-03T04:12:42;4.68;;;1.85;;
47349;SDS011;33088;51.982;5.872;2023-04-03T04:15:08;9.85;;;2.30;;
47349;SDS011;33088;51.982;5.872;2023-04-03T04:17:35;7.50;;;2.00;;
47349;SDS011;33088;51.982;5.872;2023-04-03T04:20:03;3.88;;;1.60;;
47349;SDS011;33088;51.982;5.872;2023-04-03T04:22:30;6.20;;;2.28;;
47349;SDS011;33088;51.982;5.872;2023-04-03T04:24:56;5.30;;;1.90;;
47349;SDS011;33088;51.982;5.872;2023-04-03T04:27:21;5.07;;;2.00;;
47349;SDS011;33088;51.982;5.872;2023-04-03T04:29:47;8.43;;;2.28;;
47349;SDS011;33088;51.982;5.872;2023-04-03T04:32:13;9.68;;;2.40;;
47349;SDS011;33088;51.982;5.872;2023-04-03T04:34:39;12.57;;;2.55;;
47349;SDS011;33088;51.982;5.872;2023-04-03T04:37:05;6.80;;;1.75;;
47349;SDS011;33088;51.982;5.872;2023-04-03T04:39:31;13.90;;;2.60;;
47349;SDS011;33088;51.982;5.872;2023-04-03T04:41:57;5.20;;;2.00;;
47349;SDS011;33088;51.982;5.872;2023-04-03T04:44:26;2.95;;;2.03;;
47349;SDS011;33088;51.982;5.872;2023-04-03T04:46:52;8.15;;;3.25;;
47349;SDS011;33088;51.982;5.872;2023-04-03T04:49:19;10.38;;;2.75;;
47349;SDS011;33088;51.982;5.872;2023-04-03T04:51:48;6.22;;;2.47;;
47349;SDS011;33088;51.982;5.872;2023-04-03T04:54:14;7.82;;;3.13;;
47349;SDS011;33088;51.982;5.872;2023-04-03T04:56:40;3.92;;;1.92;;
47349;SDS011;33088;51.982;5.872;2023-04-03T04:59:07;7.43;;;3.15;;
47349;SDS011;33088;51.982;5.872;2023-04-03T05:01:33;9.45;;;2.72;;
47349;SDS011;33088;51.982;5.872;2023-04-03T05:04:07;6.47;;;2.13;;
47349;SDS011;33088;51.982;5.872;2023-04-03T05:06:34;7.43;;;2.38;;
47349;SDS011;33088;51.982;5.872;2023-04-03T05:09:02;8.75;;;4.20;;
47349;SDS011;33088;51.982;5.872;2023-04-03T05:11:30;7.38;;;2.70;;
47349;SDS011;33088;51.982;5.872;2023-04-03T05:13:56;4.70;;;2.10;;
47349;SDS011;33088;51.982;5.872;2023-04-03T05:16:23;9.00;;;2.20;;
47349;SDS011;33088;51.982;5.872;2023-04-03T05:18:49;13.70;;;1.80;;
47349;SDS011;33088;51.982;5.872;2023-04-03T05:21:18;6.13;;;2.15;;
47349;SDS011;33088;51.982;5.872;2023-04-03T05:23:47;8.00;;;2.47;;
47349;SDS011;33088;51.982;5.872;2023-04-03T05:26:13;5.53;;;2.10;;
47349;SDS011;33088;51.982;5.872;2023-04-03T05:28:39;5.57;;;1.75;;
47349;SDS011;33088;51.982;5.872;2023-04-03T05:31:06;6.50;;;2.22;;
47349;SDS011;33088;51.982;5.872;2023-04-03T05:33:35;6.25;;;1.98;;
47349;SDS011;33088;51.982;5.872;2023-04-03T05:36:04;9.88;;;1.83;;
47349;SDS011;33088;51.982;5.872;2023-04-03T05:38:33;14.27;;;3.10;;
47349;SDS011;33088;51.982;5.872;2023-04-03T05:43:55;4.47;;;2.00;;
47349;SDS011;33088;51.982;5.872;2023-04-03T05:46:41;9.25;;;2.42;;
47349;SDS011;33088;51.982;5.872;2023-04-03T05:49:14;8.63;;;2.55;;
47349;SDS011;33088;51.982;5.872;2023-04-03T05:51:40;8.32;;;1.88;;
47349;SDS011;33088;51.982;5.872;2023-04-03T05:54:29;6.85;;;1.90;;
47349;SDS011;33088;51.982;5.872;2023-04-03T05:57:14;7.03;;;1.67;;
47349;SDS011;33088;51.982;5.872;2023-04-03T05:59:45;5.95;;;1.90;;
47349;SDS011;33088;51.982;5.872;2023-04-03T06:02:13;8.30;;;2.10;;
47349;SDS011;33088;51.982;5.872;2023-04-03T06:04:44;5.22;;;1.80;;
47349;SDS011;33088;51.982;5.872;2023-04-03T06:07:11;6.10;;;1.80;;
47349;SDS011;33088;51.982;5.872;2023-04-03T06:09:39;6.97;;;2.38;;
47349;SDS011;33088;51.982;5.872;2023-04-03T06:12:05;7.80;;;1.65;;
47349;SDS011;33088;51.982;5.872;2023-04-03T06:14:31;4.97;;;1.80;;
47349;SDS011;33088;51.982;5.872;2023-04-03T06:16:56;10.20;;;1.88;;
47349;SDS011;33088;51.982;5.872;2023-04-03T06:19:22;5.57;;;1.95;;
47349;SDS011;33088;51.982;5.872;2023-04-03T06:21:52;7.53;;;1.98;;
47349;SDS011;33088;51.982;5.872;2023-04-03T06:24:18;4.20;;;1.35;;
47349;SDS011;33088;51.982;5.872;2023-04-03T06:26:47;4.15;;;1.63;;
47349;SDS011;33088;51.982;5.872;2023-04-03T06:29:23;4.63;;;1.88;;
47349;SDS011;33088;51.982;5.872;2023-04-03T06:31:59;7.07;;;2.15;;
47349;SDS011;33088;51.982;5.872;2023-04-03T06:34:34;9.18;;;2.40;;
47349;SDS011;33088;51.982;5.872;2023-04-03T06:37:21;8.50;;;2.25;;
47349;SDS011;33088;51.982;5.872;2023-04-03T06:39:58;7.32;;;2.17;;
47349;SDS011;33088;51.982;5.872;2023-04-03T06:42:25;5.85;;;1.70;;
47349;SDS011;33088;51.982;5.872;2023-04-03T06:45:00;9.40;;;2.42;;
47349;SDS011;33088;51.982;5.872;2023-04-03T06:47:26;5.95;;;2.50;;
47349;SDS011;33088;51.982;5.872;2023-04-03T06:49:54;6.00;;;2.08;;
47349;SDS011;33088;51.982;5.872;2023-04-03T06:52:19;4.65;;;2.03;;
47349;SDS011;33088;51.982;5.872;2023-04-03T06:54:45;6.45;;;1.63;;
47349;SDS011;33088;51.982;5.872;2023-04-03T06:57:12;6.07;;;1.85;;
47349;SDS011;33088;51.982;5.872;2023-04-03T06:59:38;3.58;;;1.70;;
47349;SDS011;33088;51.982;5.872;2023-04-03T07:02:05;4.30;;;1.45;;
47349;SDS011;33088;51.982;5.872;2023-04-03T07:04:31;8.85;;;2.25;;
47349;SDS011;33088;51.982;5.872;2023-04-03T07:06:57;4.85;;;1.83;;
47349;SDS011;33088;51.982;5.872;2023-04-03T07:09:22;7.00;;;3.20;;
47349;SDS011;33088;51.982;5.872;2023-04-03T07:11:48;5.55;;;1.65;;
47349;SDS011;33088;51.982;5.872;2023-04-03T07:14:14;6.88;;;1.60;;
47349;SDS011;33088;51.982;5.872;2023-04-03T07:16:39;7.82;;;1.77;;
47349;SDS011;33088;51.982;5.872;2023-04-03T07:19:05;3.85;;;1.30;;
47349;SDS011;33088;51.982;5.872;2023-04-03T07:21:33;5.85;;;1.60;;
47349;SDS011;33088;51.982;5.872;2023-04-03T07:23:59;6.45;;;1.88;;
47349;SDS011;33088;51.982;5.872;2023-04-03T07:26:25;5.05;;;1.75;;
47349;SDS011;33088;51.982;5.872;2023-04-03T07:28:51;5.35;;;2.03;;
47349;SDS011;33088;51.982;5.872;2023-04-03T07:31:17;4.97;;;1.60;;
47349;SDS011;33088;51.982;5.872;2023-04-03T07:33:45;7.15;;;1.77;;
47349;SDS011;33088;51.982;5.872;2023-04-03T07:36:14;5.57;;;1.65;;
47349;SDS011;33088;51.982;5.872;2023-04-03T07:38:44;8.15;;;2.97;;
47349;SDS011;33088;51.982;5.872;2023-04-03T07:41:14;4.90;;;1.75;;
47349;SDS011;33088;51.982;5.872;2023-04-03T07:43:42;8.18;;;1.75;;
47349;SDS011;33088;51.982;5.872;2023-04-03T07:46:11;6.68;;;1.65;;
47349;SDS011;33088;51.982;5.872;2023-04-03T07:48:44;7.57;;;1.58;;
47349;SDS011;33088;51.982;5.872;2023-04-03T07:51:10;4.68;;;1.10;;
47349;SDS011;33088;51.982;5.872;2023-04-03T07:53:36;3.50;;;1.42;;
47349;SDS011;33088;51.982;5.872;2023-04-03T07:56:02;7.35;;;2.15;;
47349;SDS011;33088;51.982;5.872;2023-04-03T07:58:28;5.97;;;1.63;;
47349;SDS011;33088;51.982;5.872;2023-04-03T08:00:54;5.65;;;1.38;;
47349;SDS011;33088;51.982;5.872;2023-04-03T08:03:20;4.25;;;1.67;;
47349;SDS011;33088;51.982;5.872;2023-04-03T08:05:46;4.78;;;1.80;;
47349;SDS011;33088;51.982;5.872;2023-04-03T08:08:33;5.03;;;1.90;;
47349;SDS011;33088;51.982;5.872;2023-04-03T08:11:02;8.75;;;2.03;;
47349;SDS011;33088;51.982;5.872;2023-04-03T08:13:38;1.20;;;1.00;;
47349;SDS011;33088;51.982;5.872;2023-04-03T08:16:10;2.10;;;1.20;;
47349;SDS011;33088;51.982;5.872;2023-04-03T08:18:53;3.67;;;1.23;;
47349;SDS011;33088;51.982;5.872;2023-04-03T08:21:20;3.63;;;1.00;;
47349;SDS011;33088;51.982;5.872;2023-04-03T08:23:47;4.00;;;1.40;;
47349;SDS011;33088;51.982;5.872;2023-04-03T08:26:18;4.05;;;1.35;;
47349;SDS011;33088;51.982;5.872;2023-04-03T08:28:49;2.63;;;0.98;;
47349;SDS011;33088;51.982;5.872;2023-04-03T08:31:16;2.80;;;1.30;;
47349;SDS011;33088;51.982;5.872;2023-04-03T08:33:52;2.33;;;1.10;;
47349;SDS011;33088;51.982;5.872;2023-04-03T08:36:29;6.70;;;1.50;;
47349;SDS011;33088;51.982;5.872;2023-04-03T08:38:56;2.50;;;0.90;;
47349;SDS011;33088;51.982;5.872;2023-04-03T08:41:45;2.97;;;1.00;;
47349;SDS011;33088;51.982;5.872;2023-04-03T08:47:24;2.65;;;1.10;;
47349;SDS011;33088;51.982;5.872;2023-04-03T08:50:00;6.68;;;1.08;;
47349;SDS011;33088;51.982;5.872;2023-04-03T08:52:43;3.00;;;1.00;;
47349;SDS011;33088;51.982;5.872;2023-04-03T08:57:57;4.38;;;0.95;;
47349;SDS011;33088;51.982;5.872;2023-04-03T09:00:43;1.23;;;0.80;;
47349;SDS011;33088;51.982;5.872;2023-04-03T09:03:16;3.58;;;1.25;;
47349;SDS011;33088;51.982;5.872;2023-04-03T09:06:31;2.42;;;1.05;;
47349;SDS011;33088;51.982;5.872;2023-04-03T09:08:40;1.38;;;0.65;;
47349;SDS011;33088;51.982;5.872;2023-04-03T09:14:03;2.08;;;0.73;;
47349;SDS011;33088;51.982;5.872;2023-04-03T09:22:09;0.68;;;0.47;;
47349;SDS011;33088;51.982;5.872;2023-04-03T09:24:42;2.03;;;0.50;;
47349;SDS011;33088;51.982;5.872;2023-04-03T09:27:11;1.27;;;0.50;;
47349;SDS011;33088;51.982;5.872;2023-04-03T09:29:41;0.80;;;0.65;;
47349;SDS011;33088;51.982;5.872;2023-04-03T09:35:02;1.45;;;0.95;;
47349;SDS011;33088;51.982;5.872;2023-04-03T09:40:28;1.15;;;0.90;;
47349;SDS011;33088;51.982;5.872;2023-04-03T09:42:57;2.00;;;0.80;;
47349;SDS011;33088;51.982;5.872;2023-04-03T09:45:32;1.75;;;0.88;;
47349;SDS011;33088;51.982;5.872;2023-04-03T09:53:34;0.85;;;0.60;;
47349;SDS011;33088;51.982;5.872;2023-04-03T09:58:46;0.55;;;0.47;;
47349;SDS011;33088;51.982;5.872;2023-04-03T10:01:28;1.07;;;0.50;;
47349;SDS011;33088;51.982;5.872;2023-04-03T10:04:04;3.65;;;0.75;;
47349;SDS011;33088;51.982;5.872;2023-04-03T10:06:37;2.67;;;0.40;;
47349;SDS011;33088;51.982;5.872;2023-04-03T10:14:36;2.42;;;0.63;;
47349;SDS011;33088;51.982;5.872;2023-04-03T10:20:22;2.15;;;0.70;;
47349;SDS011;33088;51.982;5.872;2023-04-03T10:37:13;1.08;;;0.70;;
47349;SDS011;33088;51.982;5.872;2023-04-03T10:47:53;4.03;;;1.55;;
47349;SDS011;33088;51.982;5.872;2023-04-03T10:58:57;4.63;;;1.20;;
47349;SDS011;33088;51.982;5.872;2023-04-03T11:01:45;4.10;;;1.20;;
47349;SDS011;33088;51.982;5.872;2023-04-03T11:04:23;2.38;;;0.98;;
47349;SDS011;33088;51.982;5.872;2023-04-03T11:07:01;3.33;;;1.00;;
47349;SDS011;33088;51.982;5.872;2023-04-03T11:09:37;1.48;;;0.70;;
47349;SDS011;33088;51.982;5.872;2023-04-03T11:14:51;2.75;;;1.58;;
47349;SDS011;33088;51.982;5.872;2023-04-03T11:25:20;1.25;;;0.70;;
47349;SDS011;33088;51.982;5.872;2023-04-03T11:27:56;3.00;;;0.77;;
47349;SDS011;33088;51.982;5.872;2023-04-03T11:36:13;2.40;;;1.25;;
47349;SDS011;33088;51.982;5.872;2023-04-03T11:38:47;4.38;;;1.20;;
47349;SDS011;33088;51.982;5.872;2023-04-03T11:41:16;3.78;;;0.68;;
47349;SDS011;33088;51.982;5.872;2023-04-03T11:46:29;4.50;;;0.93;;
47349;SDS011;33088;51.982;5.872;2023-04-03T12:05:57;2.97;;;1.08;;
47349;SDS011;33088;51.982;5.872;2023-04-03T12:16:19;2.95;;;1.05;;
47349;SDS011;33088;51.982;5.872;2023-04-03T12:29:25;0.88;;;0.70;;
47349;SDS011;33088;51.982;5.872;2023-04-03T12:45:44;1.35;;;1.02;;
47349;SDS011;33088;51.982;5.872;2023-04-03T12:48:20;3.45;;;0.88;;
47349;SDS011;33088;51.982;5.872;2023-04-03T12:50:51;3.65;;;1.17;;
47349;SDS011;33088;51.982;5.872;2023-04-03T12:56:21;1.17;;;0.70;;
47349;SDS011;33088;51.982;5.872;2023-04-03T12:58:55;2.13;;;0.98;;
47349;SDS011;33088;51.982;5.872;2023-04-03T13:01:38;3.55;;;1.10;;
47349;SDS011;33088;51.982;5.872;2023-04-03T13:04:04;1.00;;;0.82;;
47349;SDS011;33088;51.982;5.872;2023-04-03T13:06:32;2.95;;;1.08;;
47349;SDS011;33088;51.982;5.872;2023-04-03T13:11:33;4.03;;;1.00;;
47349;SDS011;33088;51.982;5.872;2023-04-03T13:14:02;4.22;;;1.08;;
47349;SDS011;33088;51.982;5.872;2023-04-03T13:16:30;4.32;;;1.27;;
47349;SDS011;33088;51.982;5.872;2023-04-03T13:18:57;2.08;;;0.93;;
47349;SDS011;33088;51.982;5.872;2023-04-03T13:21:27;2.13;;;1.38;;
47349;SDS011;33088;51.982;5.872;2023-04-03T13:23:56;8.00;;;1.10;;
47349;SDS011;33088;51.982;5.872;2023-04-03T13:26:26;4.03;;;1.30;;
47349;SDS011;33088;51.982;5.872;2023-04-03T13:28:59;4.15;;;1.40;;
47349;SDS011;33088;51.982;5.872;2023-04-03T13:31:29;2.15;;;1.33;;
47349;SDS011;33088;51.982;5.872;2023-04-03T13:34:04;1.52;;;0.75;;
47349;SDS011;33088;51.982;5.872;2023-04-03T13:36:35;3.50;;;0.80;;
47349;SDS011;33088;51.982;5.872;2023-04-03T13:46:47;2.58;;;1.25;;
47349;SDS011;33088;51.982;5.872;2023-04-03T13:49:19;3.90;;;1.33;;
47349;SDS011;33088;51.982;5.872;2023-04-03T13:51:46;3.37;;;1.13;;
47349;SDS011;33088;51.982;5.872;2023-04-03T13:54:16;2.63;;;1.15;;
47349;SDS011;33088;51.982;5.872;2023-04-03T13:56:55;4.45;;;1.10;;
47349;SDS011;33088;51.982;5.872;2023-04-03T13:59:30;2.08;;;0.98;;
47349;SDS011;33088;51.982;5.872;2023-04-03T14:04:31;4.05;;;1.52;;
47349;SDS011;33088;51.982;5.872;2023-04-03T14:07:09;3.90;;;1.27;;
47349;SDS011;33088;51.982;5.872;2023-04-03T14:09:39;3.92;;;1.55;;
47349;SDS011;33088;51.982;5.872;2023-04-03T14:12:06;4.68;;;1.75;;
47349;SDS011;33088;51.982;5.872;2023-04-03T14:14:35;5.88;;;1.70;;
47349;SDS011;33088;51.982;5.872;2023-04-03T14:17:05;1.55;;;1.23;;
47349;SDS011;33088;51.982;5.872;2023-04-03T14:19:39;4.65;;;1.92;;
47349;SDS011;33088;51.982;5.872;2023-04-03T14:24:47;4.90;;;1.17;;
47349;SDS011;33088;51.982;5.872;2023-04-03T14:27:19;4.05;;;1.40;;
47349;SDS011;33088;51.982;5.872;2023-04-03T14:29:47;2.53;;;1.88;;
47349;SDS011;33088;51.982;5.872;2023-04-03T14:32:16;8.25;;;2.13;;
47349;SDS011;33088;51.982;5.872;2023-04-03T14:34:42;2.60;;;1.20;;
47349;SDS011;33088;51.982;5.872;2023-04-03T14:37:10;2.67;;;1.23;;
47349;SDS011;33088;51.982;5.872;2023-04-03T14:39:38;2.75;;;1.10;;
47349;SDS011;33088;51.982;5.872;2023-04-03T14:42:04;1.88;;;1.20;;
47349;SDS011;33088;51.982;5.872;2023-04-03T14:44:30;3.05;;;1.50;;
47349;SDS011;33088;51.982;5.872;2023-04-03T14:46:55;5.80;;;1.67;;
47349;SDS011;33088;51.982;5.872;2023-04-03T14:49:22;5.00;;;1.65;;
47349;SDS011;33088;51.982;5.872;2023-04-03T14:51:53;4.47;;;1.20;;
47349;SDS011;33088;51.982;5.872;2023-04-03T14:54:20;6.53;;;1.63;;
47349;SDS011;33088;51.982;5.872;2023-04-03T14:56:50;2.78;;;1.40;;
47349;SDS011;33088;51.982;5.872;2023-04-03T14:59:17;4.68;;;1.38;;
47349;SDS011;33088;51.982;5.872;2023-04-03T15:01:45;3.20;;;1.65;;
47349;SDS011;33088;51.982;5.872;2023-04-03T15:04:12;2.85;;;1.75;;
47349;SDS011;33088;51.982;5.872;2023-04-03T15:06:38;1.67;;;1.38;;
47349;SDS011;33088;51.982;5.872;2023-04-03T15:09:05;4.18;;;1.67;;
47349;SDS011;33088;51.982;5.872;2023-04-03T15:11:35;3.65;;;1.88;;
47349;SDS011;33088;51.982;5.872;2023-04-03T15:14:01;2.85;;;1.60;;
47349;SDS011;33088;51.982;5.872;2023-04-03T15:16:27;4.97;;;1.60;;
47349;SDS011;33088;51.982;5.872;2023-04-03T15:18:53;3.45;;;1.58;;
47349;SDS011;33088;51.982;5.872;2023-04-03T15:21:18;2.65;;;1.10;;
47349;SDS011;33088;51.982;5.872;2023-04-03T15:23:44;7.50;;;1.75;;
47349;SDS011;33088;51.982;5.872;2023-04-03T15:26:10;1.58;;;1.13;;
47349;SDS011;33088;51.982;5.872;2023-04-03T15:28:37;4.18;;;1.83;;
47349;SDS011;33088;51.982;5.872;2023-04-03T15:31:05;10.43;;;1.67;;
47349;SDS011;33088;51.982;5.872;2023-04-03T15:33:32;3.95;;;1.25;;
47349;SDS011;33088;51.982;5.872;2023-04-03T15:35:58;3.05;;;1.70;;
47349;SDS011;33088;51.982;5.872;2023-04-03T15:38:23;6.15;;;1.60;;
47349;SDS011;33088;51.982;5.872;2023-04-03T15:40:50;4.10;;;1.50;;
47349;SDS011;33088;51.982;5.872;2023-04-03T15:43:16;3.30;;;1.58;;
47349;SDS011;33088;51.982;5.872;2023-04-03T15:45:42;4.10;;;1.63;;
47349;SDS011;33088;51.982;5.872;2023-04-03T15:48:09;3.00;;;1.33;;
47349;SDS011;33088;51.982;5.872;2023-04-03T15:50:36;4.97;;;1.75;;
47349;SDS011;33088;51.982;5.872;2023-04-03T15:53:02;5.10;;;1.75;;
47349;SDS011;33088;51.982;5.872;2023-04-03T15:55:29;3.72;;;2.00;;
47349;SDS011;33088;51.982;5.872;2023-04-03T15:57:56;2.90;;;1.55;;
47349;SDS011;33088;51.982;5.872;2023-04-03T16:00:25;6.93;;;1.60;;
47349;SDS011;33088;51.982;5.872;2023-04-03T16:02:55;5.25;;;1.50;;
47349;SDS011;33088;51.982;5.872;2023-04-03T16:05:28;3.13;;;1.65;;
47349;SDS011;33088;51.982;5.872;2023-04-03T16:07:54;3.00;;;1.40;;
47349;SDS011;33088;51.982;5.872;2023-04-03T16:10:23;6.82;;;1.88;;
47349;SDS011;33088;51.982;5.872;2023-04-03T16:12:48;5.28;;;1.50;;
47349;SDS011;33088;51.982;5.872;2023-04-03T16:15:14;4.82;;;1.67;;
47349;SDS011;33088;51.982;5.872;2023-04-03T16:17:40;2.97;;;1.27;;
47349;SDS011;33088;51.982;5.872;2023-04-03T16:20:06;2.67;;;1.67;;
47349;SDS011;33088;51.982;5.872;2023-04-03T16:22:34;7.50;;;2.25;;
47349;SDS011;33088;51.982;5.872;2023-04-03T16:25:00;4.20;;;1.70;;
47349;SDS011;33088;51.982;5.872;2023-04-03T16:27:26;3.25;;;1.52;;
47349;SDS011;33088;51.982;5.872;2023-04-03T16:29:55;4.75;;;1.45;;
47349;SDS011;33088;51.982;5.872;2023-04-03T16:32:22;2.88;;;1.35;;
47349;SDS011;33088;51.982;5.872;2023-04-03T16:34:49;4.82;;;1.42;;
47349;SDS011;33088;51.982;5.872;2023-04-03T16:37:15;3.33;;;1.60;;
47349;SDS011;33088;51.982;5.872;2023-04-03T16:39:44;4.80;;;1.10;;
47349;SDS011;33088;51.982;5.872;2023-04-03T16:42:09;3.90;;;1.90;;
47349;SDS011;33088;51.982;5.872;2023-04-03T16:44:36;3.00;;;1.42;;
47349;SDS011;33088;51.982;5.872;2023-04-03T16:47:02;8.23;;;1.80;;
47349;SDS011;33088;51.982;5.872;2023-04-03T16:49:28;5.38;;;1.77;;
47349;SDS011;33088;51.982;5.872;2023-04-03T16:51:58;4.65;;;2.20;;
47349;SDS011;33088;51.982;5.872;2023-04-03T16:54:24;4.05;;;1.73;;
47349;SDS011;33088;51.982;5.872;2023-04-03T16:56:49;8.18;;;2.00;;
47349;SDS011;33088;51.982;5.872;2023-04-03T16:59:15;5.68;;;2.90;;
47349;SDS011;33088;51.982;5.872;2023-04-03T17:01:41;4.60;;;1.80;;
47349;SDS011;33088;51.982;5.872;2023-04-03T17:04:07;3.42;;;1.50;;
47349;SDS011;33088;51.982;5.872;2023-04-03T17:06:33;5.53;;;1.67;;
47349;SDS011;33088;51.982;5.872;2023-04-03T17:08:58;4.00;;;1.92;;
47349;SDS011;33088;51.982;5.872;2023-04-03T17:11:30;5.88;;;1.50;;
47349;SDS011;33088;51.982;5.872;2023-04-03T17:14:00;4.53;;;1.98;;
47349;SDS011;33088;51.982;5.872;2023-04-03T17:16:38;4.70;;;1.50;;
47349;SDS011;33088;51.982;5.872;2023-04-03T17:19:06;7.82;;;1.73;;
47349;SDS011;33088;51.982;5.872;2023-04-03T17:21:51;4.53;;;1.20;;
47349;SDS011;33088;51.982;5.872;2023-04-03T17:24:17;5.40;;;1.52;;
47349;SDS011;33088;51.982;5.872;2023-04-03T17:27:01;6.30;;;1.52;;
47349;SDS011;33088;51.982;5.872;2023-04-03T17:29:39;2.70;;;1.52;;
47349;SDS011;33088;51.982;5.872;2023-04-03T17:32:15;5.03;;;1.52;;
47349;SDS011;33088;51.982;5.872;2023-04-03T17:34:46;3.03;;;1.55;;
47349;SDS011;33088;51.982;5.872;2023-04-03T17:37:12;6.72;;;1.95;;
47349;SDS011;33088;51.982;5.872;2023-04-03T17:39:38;3.70;;;1.85;;
47349;SDS011;33088;51.982;5.872;2023-04-03T17:42:03;7.03;;;1.73;;